sensor_id;sensor_type;location;lat;lon;timestamp;temperature;humidity
70421;SHT31;57848;51.938;15.520;2023-08-20T00:01:35;23.98;75.32
70421;SHT31;57848;51.938;15.520;2023-08-20T00:04:01;23.94;75.32
70421;SHT31;57848;51.938;15.520;2023-08-20T00:06:27;23.94;75.32
70421;SHT31;57848;51.938;15.520;2023-08-20T00:08:53;23.90;75.32
70421;SHT31;57848;51.938;15.520;2023-08-20T00:11:18;23.91;75.28
70421;SHT31;57848;51.938;15.520;2023-08-20T00:13:44;23.87;75.18
70421;SHT31;57848;51.938;15.520;2023-08-20T00:16:09;23.87;75.00
70421;SHT31;57848;51.938;15.520;2023-08-20T00:18:35;23.90;74.80
70421;SHT31;57848;51.938;15.520;2023-08-20T00:21:01;23.93;74.66
70421;SHT31;57848;51.938;15.520;2023-08-20T00:23:27;23.94;74.68
70421;SHT31;57848;51.938;15.520;2023-08-20T00:25:52;23.97;74.60
70421;SHT31;57848;51.938;15.520;2023-08-20T00:28:20;23.98;74.60
70421;SHT31;57848;51.938;15.520;2023-08-20T00:30:46;24.00;74.33
70421;SHT31;57848;51.938;15.520;2023-08-20T00:33:11;24.02;74.12
70421;SHT31;57848;51.938;15.520;2023-08-20T00:35:36;24.05;74.03
70421;SHT31;57848;51.938;15.520;2023-08-20T00:38:02;24.07;74.13
70421;SHT31;57848;51.938;15.520;2023-08-20T00:40:28;24.07;74.09
70421;SHT31;57848;51.938;15.520;2023-08-20T00:42:53;24.05;73.98
70421;SHT31;57848;51.938;15.520;2023-08-20T00:45:18;24.14;73.62
70421;SHT31;57848;51.938;15.520;2023-08-20T00:47:44;24.14;73.81
70421;SHT31;57848;51.938;15.520;2023-08-20T00:50:10;24.11;73.74
70421;SHT31;57848;51.938;15.520;2023-08-20T00:52:35;24.10;73.82
70421;SHT31;57848;51.938;15.520;2023-08-20T00:55:08;24.08;73.77
70421;SHT31;57848;51.938;15.520;2023-08-20T00:57:34;24.11;73.65
70421;SHT31;57848;51.938;15.520;2023-08-20T01:00:00;24.08;73.77
70421;SHT31;57848;51.938;15.520;2023-08-20T01:02:26;24.10;73.72
70421;SHT31;57848;51.938;15.520;2023-08-20T01:04:52;24.10;73.76
70421;SHT31;57848;51.938;15.520;2023-08-20T01:07:30;24.07;74.00
70421;SHT31;57848;51.938;15.520;2023-08-20T01:10:19;24.08;74.02
70421;SHT31;57848;51.938;15.520;2023-08-20T01:12:49;24.00;74.25
70421;SHT31;57848;51.938;15.520;2023-08-20T01:15:15;24.00;74.22
70421;SHT31;57848;51.938;15.520;2023-08-20T01:17:42;23.93;74.55
70421;SHT31;57848;51.938;15.520;2023-08-20T01:20:10;23.93;74.44
70421;SHT31;57848;51.938;15.520;2023-08-20T01:27:52;23.90;74.63
70421;SHT31;57848;51.938;15.520;2023-08-20T01:30:18;23.84;74.61
70421;SHT31;57848;51.938;15.520;2023-08-20T01:32:46;23.82;74.85
70421;SHT31;57848;51.938;15.520;2023-08-20T01:35:12;23.81;74.72
70421;SHT31;57848;51.938;15.520;2023-08-20T01:37:41;23.78;74.81
70421;SHT31;57848;51.938;15.520;2023-08-20T01:40:08;23.80;74.78
70421;SHT31;57848;51.938;15.520;2023-08-20T01:42:38;23.81;74.71
70421;SHT31;57848;51.938;15.520;2023-08-20T01:45:05;23.77;74.91
70421;SHT31;57848;51.938;15.520;2023-08-20T01:47:31;23.85;74.61
70421;SHT31;57848;51.938;15.520;2023-08-20T01:49:59;23.91;74.42
70421;SHT31;57848;51.938;15.520;2023-08-20T01:52:25;23.96;74.42
70421;SHT31;57848;51.938;15.520;2023-08-20T01:54:50;23.97;74.43
70421;SHT31;57848;51.938;15.520;2023-08-20T01:57:16;23.94;74.59
70421;SHT31;57848;51.938;15.520;2023-08-20T01:59:42;23.96;74.63
70421;SHT31;57848;51.938;15.520;2023-08-20T02:02:07;23.94;74.60
70421;SHT31;57848;51.938;15.520;2023-08-20T02:04:33;23.91;74.73
70421;SHT31;57848;51.938;15.520;2023-08-20T02:06:59;23.93;74.68
70421;SHT31;57848;51.938;15.520;2023-08-20T02:09:26;23.94;74.85
70421;SHT31;57848;51.938;15.520;2023-08-20T02:11:52;23.84;75.00
70421;SHT31;57848;51.938;15.520;2023-08-20T02:14:18;23.82;75.20
70421;SHT31;57848;51.938;15.520;2023-08-20T02:16:44;23.74;75.49
70421;SHT31;57848;51.938;15.520;2023-08-20T02:19:10;23.70;75.62
70421;SHT31;57848;51.938;15.520;2023-08-20T02:21:36;23.67;75.81
70421;SHT31;57848;51.938;15.520;2023-08-20T02:24:01;23.63;75.91
70421;SHT31;57848;51.938;15.520;2023-08-20T02:26:27;23.63;75.97
70421;SHT31;57848;51.938;15.520;2023-08-20T02:28:52;23.61;76.00
70421;SHT31;57848;51.938;15.520;2023-08-20T02:31:18;23.67;75.98
70421;SHT31;57848;51.938;15.520;2023-08-20T02:33:46;23.64;76.10
70421;SHT31;57848;51.938;15.520;2023-08-20T02:36:12;23.61;76.30
70421;SHT31;57848;51.938;15.520;2023-08-20T02:38:38;23.61;76.26
70421;SHT31;57848;51.938;15.520;2023-08-20T02:41:03;23.63;76.23
70421;SHT31;57848;51.938;15.520;2023-08-20T02:43:29;23.66;76.07
70421;SHT31;57848;51.938;15.520;2023-08-20T02:45:54;23.59;76.43
70421;SHT31;57848;51.938;15.520;2023-08-20T02:48:20;23.61;76.38
70421;SHT31;57848;51.938;15.520;2023-08-20T02:50:45;23.63;76.29
70421;SHT31;57848;51.938;15.520;2023-08-20T02:53:11;23.56;76.71
70421;SHT31;57848;51.938;15.520;2023-08-20T02:55:36;23.53;76.49
70421;SHT31;57848;51.938;15.520;2023-08-20T02:58:02;23.50;76.77
70421;SHT31;57848;51.938;15.520;2023-08-20T03:00:29;23.47;76.81
70421;SHT31;57848;51.938;15.520;2023-08-20T03:02:55;23.45;76.98
70421;SHT31;57848;51.938;15.520;2023-08-20T03:05:22;23.39;77.19
70421;SHT31;57848;51.938;15.520;2023-08-20T03:07:47;23.33;77.42
70421;SHT31;57848;51.938;15.520;2023-08-20T03:10:12;23.29;77.53
70421;SHT31;57848;51.938;15.520;2023-08-20T03:12:38;23.30;77.58
70421;SHT31;57848;51.938;15.520;2023-08-20T03:15:03;23.30;77.69
70421;SHT31;57848;51.938;15.520;2023-08-20T03:17:29;23.29;77.58
70421;SHT31;57848;51.938;15.520;2023-08-20T03:19:55;23.29;77.76
70421;SHT31;57848;51.938;15.520;2023-08-20T03:22:22;23.27;77.73
70421;SHT31;57848;51.938;15.520;2023-08-20T03:24:47;23.26;77.85
70421;SHT31;57848;51.938;15.520;2023-08-20T03:27:12;23.26;77.88
70421;SHT31;57848;51.938;15.520;2023-08-20T03:29:38;23.27;77.91
70421;SHT31;57848;51.938;15.520;2023-08-20T03:32:03;23.29;77.87
70421;SHT31;57848;51.938;15.520;2023-08-20T03:34:29;23.27;77.97
70421;SHT31;57848;51.938;15.520;2023-08-20T03:36:56;23.27;78.14
70421;SHT31;57848;51.938;15.520;2023-08-20T03:39:21;23.29;78.22
70421;SHT31;57848;51.938;15.520;2023-08-20T03:41:46;23.22;78.46
70421;SHT31;57848;51.938;15.520;2023-08-20T03:44:13;23.20;78.41
70421;SHT31;57848;51.938;15.520;2023-08-20T03:46:39;23.18;78.73
70421;SHT31;57848;51.938;15.520;2023-08-20T03:49:04;23.18;78.70
70421;SHT31;57848;51.938;15.520;2023-08-20T03:51:30;23.18;78.64
70421;SHT31;57848;51.938;15.520;2023-08-20T03:53:56;23.19;78.68
70421;SHT31;57848;51.938;15.520;2023-08-20T03:56:21;23.16;78.72
70421;SHT31;57848;51.938;15.520;2023-08-20T03:58:46;23.18;78.16
70421;SHT31;57848;51.938;15.520;2023-08-20T04:01:12;23.19;78.46
70421;SHT31;57848;51.938;15.520;2023-08-20T04:03:37;23.24;77.93
70421;SHT31;57848;51.938;15.520;2023-08-20T04:06:02;23.33;77.42
70421;SHT31;57848;51.938;15.520;2023-08-20T04:08:29;23.39;77.25
70421;SHT31;57848;51.938;15.520;2023-08-20T04:10:54;23.42;77.18
70421;SHT31;57848;51.938;15.520;2023-08-20T04:13:20;23.47;76.37
70421;SHT31;57848;51.938;15.520;2023-08-20T04:15:45;23.54;76.40
70421;SHT31;57848;51.938;15.520;2023-08-20T04:18:10;23.61;76.26
70421;SHT31;57848;51.938;15.520;2023-08-20T04:20:36;23.60;76.23
70421;SHT31;57848;51.938;15.520;2023-08-20T04:23:02;23.63;76.21
70421;SHT31;57848;51.938;15.520;2023-08-20T04:25:27;23.77;75.73
70421;SHT31;57848;51.938;15.520;2023-08-20T04:27:53;23.74;76.06
70421;SHT31;57848;51.938;15.520;2023-08-20T04:30:19;23.71;76.24
70421;SHT31;57848;51.938;15.520;2023-08-20T04:32:45;23.80;76.04
70421;SHT31;57848;51.938;15.520;2023-08-20T04:35:10;23.75;76.36
70421;SHT31;57848;51.938;15.520;2023-08-20T04:37:35;23.75;76.65
70421;SHT31;57848;51.938;15.520;2023-08-20T04:40:01;23.74;76.98
70421;SHT31;57848;51.938;15.520;2023-08-20T04:42:29;23.69;77.59
70421;SHT31;57848;51.938;15.520;2023-08-20T04:44:55;23.70;77.64
70421;SHT31;57848;51.938;15.520;2023-08-20T04:47:21;23.63;77.79
70421;SHT31;57848;51.938;15.520;2023-08-20T04:49:46;23.67;77.54
70421;SHT31;57848;51.938;15.520;2023-08-20T04:52:12;23.61;77.75
70421;SHT31;57848;51.938;15.520;2023-08-20T04:54:38;23.57;78.06
70421;SHT31;57848;51.938;15.520;2023-08-20T04:57:03;23.64;77.66
70421;SHT31;57848;51.938;15.520;2023-08-20T04:59:29;23.53;78.67
70421;SHT31;57848;51.938;15.520;2023-08-20T05:02:17;23.64;78.18
70421;SHT31;57848;51.938;15.520;2023-08-20T05:04:49;23.63;78.03
70421;SHT31;57848;51.938;15.520;2023-08-20T05:07:15;23.69;78.14
70421;SHT31;57848;51.938;15.520;2023-08-20T05:09:41;23.75;78.00
70421;SHT31;57848;51.938;15.520;2023-08-20T05:12:07;23.70;78.31
70421;SHT31;57848;51.938;15.520;2023-08-20T05:14:33;23.81;77.87
70421;SHT31;57848;51.938;15.520;2023-08-20T05:16:58;23.81;77.46
70421;SHT31;57848;51.938;15.520;2023-08-20T05:19:24;23.84;76.93
70421;SHT31;57848;51.938;15.520;2023-08-20T05:21:49;23.93;77.21
70421;SHT31;57848;51.938;15.520;2023-08-20T05:24:15;23.85;77.86
70421;SHT31;57848;51.938;15.520;2023-08-20T05:26:40;23.84;77.83
70421;SHT31;57848;51.938;15.520;2023-08-20T05:29:06;23.88;77.40
70421;SHT31;57848;51.938;15.520;2023-08-20T05:31:31;23.87;78.01
70421;SHT31;57848;51.938;15.520;2023-08-20T05:33:57;23.91;76.83
70421;SHT31;57848;51.938;15.520;2023-08-20T05:36:23;23.87;77.18
70421;SHT31;57848;51.938;15.520;2023-08-20T05:38:48;23.87;77.10
70421;SHT31;57848;51.938;15.520;2023-08-20T05:41:14;23.91;76.55
70421;SHT31;57848;51.938;15.520;2023-08-20T05:43:39;23.90;76.89
70421;SHT31;57848;51.938;15.520;2023-08-20T05:46:05;23.85;76.65
70421;SHT31;57848;51.938;15.520;2023-08-20T05:48:30;23.84;77.20
70421;SHT31;57848;51.938;15.520;2023-08-20T05:50:55;23.82;76.92
70421;SHT31;57848;51.938;15.520;2023-08-20T05:53:24;23.82;76.16
70421;SHT31;57848;51.938;15.520;2023-08-20T05:55:50;23.81;76.46
70421;SHT31;57848;51.938;15.520;2023-08-20T05:58:15;23.78;76.48
70421;SHT31;57848;51.938;15.520;2023-08-20T06:00:41;23.81;76.26
70421;SHT31;57848;51.938;15.520;2023-08-20T06:03:07;23.75;76.45
70421;SHT31;57848;51.938;15.520;2023-08-20T06:05:33;23.78;76.32
70421;SHT31;57848;51.938;15.520;2023-08-20T06:07:59;23.74;76.45
70421;SHT31;57848;51.938;15.520;2023-08-20T06:10:25;23.73;76.53
70421;SHT31;57848;51.938;15.520;2023-08-20T06:12:50;23.71;76.57
70421;SHT31;57848;51.938;15.520;2023-08-20T06:15:15;23.73;76.34
70421;SHT31;57848;51.938;15.520;2023-08-20T06:17:41;23.84;76.08
70421;SHT31;57848;51.938;15.520;2023-08-20T06:20:06;23.81;76.11
70421;SHT31;57848;51.938;15.520;2023-08-20T06:22:33;23.78;75.81
70421;SHT31;57848;51.938;15.520;2023-08-20T06:24:59;23.82;75.97
70421;SHT31;57848;51.938;15.520;2023-08-20T06:27:24;23.71;76.21
70421;SHT31;57848;51.938;15.520;2023-08-20T06:29:49;23.66;76.69
70421;SHT31;57848;51.938;15.520;2023-08-20T06:32:15;23.71;76.44
70421;SHT31;57848;51.938;15.520;2023-08-20T06:34:40;23.71;76.57
70421;SHT31;57848;51.938;15.520;2023-08-20T06:37:05;23.74;76.54
70421;SHT31;57848;51.938;15.520;2023-08-20T06:39:31;23.78;76.49
70421;SHT31;57848;51.938;15.520;2023-08-20T06:41:56;23.85;76.09
70421;SHT31;57848;51.938;15.520;2023-08-20T06:44:23;23.93;75.94
70421;SHT31;57848;51.938;15.520;2023-08-20T06:46:49;24.04;75.62
70421;SHT31;57848;51.938;15.520;2023-08-20T06:49:14;24.11;75.45
70421;SHT31;57848;51.938;15.520;2023-08-20T06:51:39;24.19;75.28
70421;SHT31;57848;51.938;15.520;2023-08-20T06:54:05;24.31;75.11
70421;SHT31;57848;51.938;15.520;2023-08-20T06:56:32;24.38;75.50
70421;SHT31;57848;51.938;15.520;2023-08-20T06:58:57;24.53;74.61
70421;SHT31;57848;51.938;15.520;2023-08-20T07:01:22;24.66;74.71
70421;SHT31;57848;51.938;15.520;2023-08-20T07:03:48;24.75;74.86
70421;SHT31;57848;51.938;15.520;2023-08-20T07:06:13;24.86;74.00
70421;SHT31;57848;51.938;15.520;2023-08-20T07:08:43;25.00;73.29
70421;SHT31;57848;51.938;15.520;2023-08-20T07:11:09;25.10;73.45
70421;SHT31;57848;51.938;15.520;2023-08-20T07:13:34;25.20;73.20
70421;SHT31;57848;51.938;15.520;2023-08-20T07:16:00;25.30;72.84
70421;SHT31;57848;51.938;15.520;2023-08-20T07:18:25;25.49;71.95
70421;SHT31;57848;51.938;15.520;2023-08-20T07:20:50;25.57;71.93
70421;SHT31;57848;51.938;15.520;2023-08-20T07:23:17;25.69;71.02
70421;SHT31;57848;51.938;15.520;2023-08-20T07:25:42;25.77;70.95
70421;SHT31;57848;51.938;15.520;2023-08-20T07:28:10;25.86;70.45
70421;SHT31;57848;51.938;15.520;2023-08-20T07:30:36;25.93;70.80
70421;SHT31;57848;51.938;15.520;2023-08-20T07:33:01;25.98;70.75
70421;SHT31;57848;51.938;15.520;2023-08-20T07:35:28;26.05;70.40
70421;SHT31;57848;51.938;15.520;2023-08-20T07:37:53;26.19;69.87
70421;SHT31;57848;51.938;15.520;2023-08-20T07:40:19;26.26;70.21
70421;SHT31;57848;51.938;15.520;2023-08-20T07:42:44;26.40;69.60
70421;SHT31;57848;51.938;15.520;2023-08-20T07:45:10;26.56;68.20
70421;SHT31;57848;51.938;15.520;2023-08-20T07:47:36;26.60;69.22
70421;SHT31;57848;51.938;15.520;2023-08-20T07:50:02;26.61;69.76
70421;SHT31;57848;51.938;15.520;2023-08-20T07:52:28;26.71;69.71
70421;SHT31;57848;51.938;15.520;2023-08-20T07:54:53;26.87;69.68
70421;SHT31;57848;51.938;15.520;2023-08-20T07:57:19;26.94;69.19
70421;SHT31;57848;51.938;15.520;2023-08-20T07:59:44;26.97;69.12
70421;SHT31;57848;51.938;15.520;2023-08-20T08:02:09;27.08;68.60
70421;SHT31;57848;51.938;15.520;2023-08-20T08:04:35;27.16;69.32
70421;SHT31;57848;51.938;15.520;2023-08-20T08:07:01;27.29;69.40
70421;SHT31;57848;51.938;15.520;2023-08-20T08:09:28;27.53;68.38
70421;SHT31;57848;51.938;15.520;2023-08-20T08:11:53;27.76;68.00
70421;SHT31;57848;51.938;15.520;2023-08-20T08:14:19;28.01;65.79
70421;SHT31;57848;51.938;15.520;2023-08-20T08:16:45;28.06;65.89
70421;SHT31;57848;51.938;15.520;2023-08-20T08:19:11;28.13;65.50
70421;SHT31;57848;51.938;15.520;2023-08-20T08:21:37;28.07;65.78
70421;SHT31;57848;51.938;15.520;2023-08-20T08:24:02;28.08;66.65
70421;SHT31;57848;51.938;15.520;2023-08-20T08:26:28;28.03;66.78
70421;SHT31;57848;51.938;15.520;2023-08-20T08:28:54;28.01;65.91
70421;SHT31;57848;51.938;15.520;2023-08-20T08:31:19;28.06;66.79
70421;SHT31;57848;51.938;15.520;2023-08-20T08:33:44;28.14;66.41
70421;SHT31;57848;51.938;15.520;2023-08-20T08:36:10;28.34;66.49
70421;SHT31;57848;51.938;15.520;2023-08-20T08:38:36;28.44;65.30
70421;SHT31;57848;51.938;15.520;2023-08-20T08:41:03;28.71;65.20
70421;SHT31;57848;51.938;15.520;2023-08-20T08:43:29;28.92;64.99
70421;SHT31;57848;51.938;15.520;2023-08-20T08:45:57;29.10;63.88
70421;SHT31;57848;51.938;15.520;2023-08-20T08:48:22;29.24;63.48
70421;SHT31;57848;51.938;15.520;2023-08-20T08:50:50;29.31;63.48
70421;SHT31;57848;51.938;15.520;2023-08-20T08:53:16;29.34;62.65
70421;SHT31;57848;51.938;15.520;2023-08-20T08:55:41;29.49;64.01
70421;SHT31;57848;51.938;15.520;2023-08-20T08:58:07;29.34;63.58
70421;SHT31;57848;51.938;15.520;2023-08-20T09:00:32;29.23;63.61
70421;SHT31;57848;51.938;15.520;2023-08-20T09:02:58;29.30;64.33
70421;SHT31;57848;51.938;15.520;2023-08-20T09:05:23;29.50;63.66
70421;SHT31;57848;51.938;15.520;2023-08-20T09:07:55;29.65;61.29
70421;SHT31;57848;51.938;15.520;2023-08-20T09:10:20;29.85;61.12
70421;SHT31;57848;51.938;15.520;2023-08-20T09:12:47;29.98;61.63
70421;SHT31;57848;51.938;15.520;2023-08-20T09:15:12;30.00;60.53
70421;SHT31;57848;51.938;15.520;2023-08-20T09:17:39;30.11;60.79
70421;SHT31;57848;51.938;15.520;2023-08-20T09:20:05;30.15;61.92
70421;SHT31;57848;51.938;15.520;2023-08-20T09:22:31;30.28;60.37
70421;SHT31;57848;51.938;15.520;2023-08-20T09:24:56;30.35;60.09
70421;SHT31;57848;51.938;15.520;2023-08-20T09:27:23;30.43;58.46
70421;SHT31;57848;51.938;15.520;2023-08-20T09:29:49;30.32;58.46
70421;SHT31;57848;51.938;15.520;2023-08-20T09:32:16;30.25;57.87
70421;SHT31;57848;51.938;15.520;2023-08-20T09:34:41;30.37;59.42
70421;SHT31;57848;51.938;15.520;2023-08-20T09:37:08;30.44;58.14
70421;SHT31;57848;51.938;15.520;2023-08-20T09:39:34;30.62;57.37
70421;SHT31;57848;51.938;15.520;2023-08-20T09:42:01;30.88;57.16
70421;SHT31;57848;51.938;15.520;2023-08-20T09:44:32;31.12;55.34
70421;SHT31;57848;51.938;15.520;2023-08-20T09:46:59;31.17;54.78
70421;SHT31;57848;51.938;15.520;2023-08-20T09:49:29;31.22;55.93
70421;SHT31;57848;51.938;15.520;2023-08-20T09:51:56;31.17;56.39
70421;SHT31;57848;51.938;15.520;2023-08-20T09:54:29;31.38;55.85
70421;SHT31;57848;51.938;15.520;2023-08-20T09:56:58;31.63;55.74
70421;SHT31;57848;51.938;15.520;2023-08-20T09:59:26;31.38;54.72
70421;SHT31;57848;51.938;15.520;2023-08-20T10:01:51;31.42;55.98
70421;SHT31;57848;51.938;15.520;2023-08-20T10:04:19;31.73;54.47
70421;SHT31;57848;51.938;15.520;2023-08-20T10:06:46;31.89;54.72
70421;SHT31;57848;51.938;15.520;2023-08-20T10:09:11;32.10;54.98
70421;SHT31;57848;51.938;15.520;2023-08-20T10:11:39;33.19;52.87
70421;SHT31;57848;51.938;15.520;2023-08-20T10:14:05;34.37;49.27
70421;SHT31;57848;51.938;15.520;2023-08-20T10:16:32;35.41;46.28
70421;SHT31;57848;51.938;15.520;2023-08-20T10:19:02;36.38;44.84
70421;SHT31;57848;51.938;15.520;2023-08-20T10:21:28;36.42;46.30
70421;SHT31;57848;51.938;15.520;2023-08-20T10:23:53;36.76;45.97
70421;SHT31;57848;51.938;15.520;2023-08-20T10:26:20;36.46;46.39
70421;SHT31;57848;51.938;15.520;2023-08-20T10:28:47;36.63;47.34
70421;SHT31;57848;51.938;15.520;2023-08-20T10:31:12;37.30;46.13
70421;SHT31;57848;51.938;15.520;2023-08-20T10:33:48;37.71;45.04
70421;SHT31;57848;51.938;15.520;2023-08-20T10:36:19;37.86;44.00
70421;SHT31;57848;51.938;15.520;2023-08-20T10:38:51;37.28;44.90
70421;SHT31;57848;51.938;15.520;2023-08-20T10:41:24;38.43;44.67
70421;SHT31;57848;51.938;15.520;2023-08-20T10:43:50;38.90;43.82
70421;SHT31;57848;51.938;15.520;2023-08-20T10:46:20;39.29;43.66
70421;SHT31;57848;51.938;15.520;2023-08-20T10:48:57;39.03;43.60
70421;SHT31;57848;51.938;15.520;2023-08-20T10:51:30;39.34;44.12
70421;SHT31;57848;51.938;15.520;2023-08-20T10:54:04;39.49;42.67
70421;SHT31;57848;51.938;15.520;2023-08-20T10:56:53;40.11;41.75
70421;SHT31;57848;51.938;15.520;2023-08-20T10:59:26;40.06;41.91
70421;SHT31;57848;51.938;15.520;2023-08-20T11:01:53;39.89;41.95
70421;SHT31;57848;51.938;15.520;2023-08-20T11:04:22;39.73;42.70
70421;SHT31;57848;51.938;15.520;2023-08-20T11:06:53;40.45;40.68
70421;SHT31;57848;51.938;15.520;2023-08-20T11:09:21;40.47;40.14
70421;SHT31;57848;51.938;15.520;2023-08-20T11:11:46;40.92;39.97
70421;SHT31;57848;51.938;15.520;2023-08-20T11:14:13;41.19;39.56
70421;SHT31;57848;51.938;15.520;2023-08-20T11:16:39;40.82;39.15
70421;SHT31;57848;51.938;15.520;2023-08-20T11:19:05;40.30;39.70
70421;SHT31;57848;51.938;15.520;2023-08-20T11:21:34;40.29;39.98
70421;SHT31;57848;51.938;15.520;2023-08-20T11:24:00;40.37;40.01
70421;SHT31;57848;51.938;15.520;2023-08-20T11:26:26;39.08;41.73
70421;SHT31;57848;51.938;15.520;2023-08-20T11:28:51;38.53;43.53
70421;SHT31;57848;51.938;15.520;2023-08-20T11:31:17;37.76;45.50
70421;SHT31;57848;51.938;15.520;2023-08-20T11:33:42;37.00;45.05
70421;SHT31;57848;51.938;15.520;2023-08-20T11:36:08;36.46;46.54
70421;SHT31;57848;51.938;15.520;2023-08-20T11:38:33;35.92;47.36
70421;SHT31;57848;51.938;15.520;2023-08-20T11:40:59;35.63;47.39
70421;SHT31;57848;51.938;15.520;2023-08-20T11:43:27;35.55;47.39
70421;SHT31;57848;51.938;15.520;2023-08-20T11:45:52;36.73;45.83
70421;SHT31;57848;51.938;15.520;2023-08-20T11:48:19;38.05;43.93
70421;SHT31;57848;51.938;15.520;2023-08-20T11:50:46;38.23;43.87
70421;SHT31;57848;51.938;15.520;2023-08-20T11:53:11;38.50;43.45
70421;SHT31;57848;51.938;15.520;2023-08-20T11:55:39;39.58;42.41
70421;SHT31;57848;51.938;15.520;2023-08-20T11:58:05;38.71;43.71
70421;SHT31;57848;51.938;15.520;2023-08-20T12:00:31;38.12;44.97
70421;SHT31;57848;51.938;15.520;2023-08-20T12:02:57;38.56;45.28
70421;SHT31;57848;51.938;15.520;2023-08-20T12:05:29;38.53;44.50
70421;SHT31;57848;51.938;15.520;2023-08-20T12:10:22;39.04;43.81
70421;SHT31;57848;51.938;15.520;2023-08-20T12:12:48;38.56;41.46
70421;SHT31;57848;51.938;15.520;2023-08-20T12:15:13;38.46;42.40
70421;SHT31;57848;51.938;15.520;2023-08-20T12:17:39;37.99;43.41
70421;SHT31;57848;51.938;15.520;2023-08-20T12:20:05;37.71;44.47
70421;SHT31;57848;51.938;15.520;2023-08-20T12:22:38;37.48;46.12
70421;SHT31;57848;51.938;15.520;2023-08-20T12:25:05;38.27;44.64
70421;SHT31;57848;51.938;15.520;2023-08-20T12:27:31;39.13;44.16
70421;SHT31;57848;51.938;15.520;2023-08-20T12:29:56;39.81;43.20
70421;SHT31;57848;51.938;15.520;2023-08-20T12:32:21;38.98;43.86
70421;SHT31;57848;51.938;15.520;2023-08-20T12:34:47;38.64;44.27
70421;SHT31;57848;51.938;15.520;2023-08-20T12:37:12;37.85;45.45
70421;SHT31;57848;51.938;15.520;2023-08-20T12:39:37;37.44;44.41
70421;SHT31;57848;51.938;15.520;2023-08-20T12:42:03;37.34;44.25
70421;SHT31;57848;51.938;15.520;2023-08-20T12:44:28;37.99;43.36
70421;SHT31;57848;51.938;15.520;2023-08-20T12:46:53;38.19;42.40
70421;SHT31;57848;51.938;15.520;2023-08-20T12:49:19;39.86;40.17
70421;SHT31;57848;51.938;15.520;2023-08-20T12:51:44;40.03;38.45
70421;SHT31;57848;51.938;15.520;2023-08-20T12:54:09;39.92;37.64
70421;SHT31;57848;51.938;15.520;2023-08-20T12:56:35;40.21;37.98
70421;SHT31;57848;51.938;15.520;2023-08-20T12:59:00;40.47;37.08
70421;SHT31;57848;51.938;15.520;2023-08-20T13:01:25;40.72;36.86
70421;SHT31;57848;51.938;15.520;2023-08-20T13:03:51;40.75;37.29
70421;SHT31;57848;51.938;15.520;2023-08-20T13:06:17;41.23;35.87
70421;SHT31;57848;51.938;15.520;2023-08-20T13:08:42;41.10;36.83
70421;SHT31;57848;51.938;15.520;2023-08-20T13:11:13;41.10;36.24
70421;SHT31;57848;51.938;15.520;2023-08-20T13:13:42;40.62;36.57
70421;SHT31;57848;51.938;15.520;2023-08-20T13:16:07;39.99;37.62
70421;SHT31;57848;51.938;15.520;2023-08-20T13:18:33;39.45;38.07
70421;SHT31;57848;51.938;15.520;2023-08-20T13:20:58;38.04;41.65
70421;SHT31;57848;51.938;15.520;2023-08-20T13:23:23;37.93;40.83
70421;SHT31;57848;51.938;15.520;2023-08-20T13:25:49;37.34;42.57
70421;SHT31;57848;51.938;15.520;2023-08-20T13:28:14;37.31;42.35
70421;SHT31;57848;51.938;15.520;2023-08-20T13:30:39;36.76;43.63
70421;SHT31;57848;51.938;15.520;2023-08-20T13:33:05;36.86;44.18
70421;SHT31;57848;51.938;15.520;2023-08-20T13:35:30;36.46;44.42
70421;SHT31;57848;51.938;15.520;2023-08-20T13:37:55;36.27;44.83
70421;SHT31;57848;51.938;15.520;2023-08-20T13:40:21;35.92;44.29
70421;SHT31;57848;51.938;15.520;2023-08-20T13:42:46;35.43;45.42
70421;SHT31;57848;51.938;15.520;2023-08-20T13:45:11;35.13;46.49
70421;SHT31;57848;51.938;15.520;2023-08-20T13:47:37;35.32;46.98
70421;SHT31;57848;51.938;15.520;2023-08-20T13:50:02;35.22;47.14
70421;SHT31;57848;51.938;15.520;2023-08-20T13:52:30;34.73;46.04
70421;SHT31;57848;51.938;15.520;2023-08-20T13:54:55;34.75;46.90
70421;SHT31;57848;51.938;15.520;2023-08-20T13:57:20;34.41;47.30
70421;SHT31;57848;51.938;15.520;2023-08-20T13:59:46;33.94;47.95
70421;SHT31;57848;51.938;15.520;2023-08-20T14:02:11;33.98;47.93
70421;SHT31;57848;51.938;15.520;2023-08-20T14:04:37;33.89;48.15
70421;SHT31;57848;51.938;15.520;2023-08-20T14:07:02;33.84;48.39
70421;SHT31;57848;51.938;15.520;2023-08-20T14:09:28;33.69;48.34
70421;SHT31;57848;51.938;15.520;2023-08-20T14:11:53;33.65;48.22
70421;SHT31;57848;51.938;15.520;2023-08-20T14:14:18;33.47;49.74
70421;SHT31;57848;51.938;15.520;2023-08-20T14:16:44;33.50;49.51
70421;SHT31;57848;51.938;15.520;2023-08-20T14:19:09;33.33;49.13
70421;SHT31;57848;51.938;15.520;2023-08-20T14:21:34;33.25;49.22
70421;SHT31;57848;51.938;15.520;2023-08-20T14:24:00;33.32;49.53
70421;SHT31;57848;51.938;15.520;2023-08-20T14:26:25;33.32;49.36
70421;SHT31;57848;51.938;15.520;2023-08-20T14:28:50;33.35;49.57
70421;SHT31;57848;51.938;15.520;2023-08-20T14:31:16;33.22;49.34
70421;SHT31;57848;51.938;15.520;2023-08-20T14:33:41;33.29;49.53
70421;SHT31;57848;51.938;15.520;2023-08-20T14:36:06;33.18;49.42
70421;SHT31;57848;51.938;15.520;2023-08-20T14:38:32;33.16;49.28
70421;SHT31;57848;51.938;15.520;2023-08-20T14:41:01;33.06;50.22
70421;SHT31;57848;51.938;15.520;2023-08-20T14:43:27;33.04;50.29
70421;SHT31;57848;51.938;15.520;2023-08-20T14:45:53;33.02;49.46
70421;SHT31;57848;51.938;15.520;2023-08-20T14:48:19;32.91;50.06
70421;SHT31;57848;51.938;15.520;2023-08-20T14:50:45;32.92;49.71
70421;SHT31;57848;51.938;15.520;2023-08-20T14:53:10;32.88;49.89
70421;SHT31;57848;51.938;15.520;2023-08-20T14:55:35;32.97;50.62
70421;SHT31;57848;51.938;15.520;2023-08-20T14:58:01;32.95;50.14
70421;SHT31;57848;51.938;15.520;2023-08-20T15:00:26;32.98;50.60
70421;SHT31;57848;51.938;15.520;2023-08-20T15:02:51;33.01;50.32
70421;SHT31;57848;51.938;15.520;2023-08-20T15:05:17;32.89;50.49
70421;SHT31;57848;51.938;15.520;2023-08-20T15:07:42;32.85;50.24
70421;SHT31;57848;51.938;15.520;2023-08-20T15:10:08;32.88;49.95
70421;SHT31;57848;51.938;15.520;2023-08-20T15:12:37;32.92;49.84
70421;SHT31;57848;51.938;15.520;2023-08-20T15:15:06;32.84;49.88
70421;SHT31;57848;51.938;15.520;2023-08-20T15:17:32;32.82;50.62